createdAt,value
2019-02-20T00:00:57.724Z,0.00
2019-02-20T00:01:57.730Z,0.00
2019-02-20T00:02:57.740Z,0.00
2019-02-20T00:03:57.683Z,0.00
2019-02-20T00:04:57.680Z,0.00
2019-02-20T00:05:57.686Z,0.00
2019-02-20T00:06:57.679Z,0.00
2019-02-20T00:07:57.676Z,0.00
2019-02-20T00:08:57.670Z,0.00
2019-02-20T00:09:57.659Z,0.00
2019-02-20T00:10:57.709Z,0.00
2019-02-20T00:11:57.673Z,0.00
2019-02-20T00:12:57.657Z,0.00
2019-02-20T00:13:57.618Z,0.00
2019-02-20T00:14:57.631Z,0.00
2019-02-20T00:15:57.572Z,0.00
2019-02-20T00:16:57.566Z,0.00
2019-02-20T00:17:57.537Z,0.00
2019-02-20T00:18:57.546Z,0.00
2019-02-20T00:19:57.529Z,0.00
2019-02-20T00:20:57.501Z,0.00
2019-02-20T00:21:57.498Z,0.00
2019-02-20T00:22:57.502Z,0.00
2019-02-20T00:23:57.470Z,0.00
2019-02-20T00:24:57.588Z,0.00
2019-02-20T00:25:57.464Z,0.00
2019-02-20T00:26:57.443Z,0.00
2019-02-20T00:27:57.452Z,0.00
2019-02-20T00:28:57.446Z,0.00
2019-02-20T00:29:57.428Z,0.00
2019-02-20T00:30:57.427Z,0.00
2019-02-20T00:31:57.431Z,0.00
2019-02-20T00:32:57.392Z,0.00
2019-02-20T00:33:57.378Z,0.00
2019-02-20T00:34:57.361Z,0.00
2019-02-20T00:35:57.411Z,0.00
2019-02-20T00:36:57.361Z,0.00
2019-02-20T00:37:57.330Z,0.00
2019-02-20T00:38:57.351Z,0.00
2019-02-20T00:39:57.330Z,0.00
2019-02-20T00:40:57.391Z,0.00
2019-02-20T00:41:57.302Z,0.00
2019-02-20T00:42:57.275Z,0.00
2019-02-20T00:43:57.288Z,0.00
2019-02-20T00:44:57.302Z,0.00
2019-02-20T00:45:57.839Z,0.00
2019-02-20T00:46:57.261Z,0.00
2019-02-20T00:47:57.280Z,0.00
2019-02-20T00:48:57.245Z,0.00
2019-02-20T00:49:57.202Z,0.00
2019-02-20T00:50:57.189Z,0.00
2019-02-20T00:51:57.206Z,0.00
2019-02-20T00:52:57.234Z,0.00
2019-02-20T00:53:57.162Z,0.00
2019-02-20T00:54:57.142Z,0.00
2019-02-20T00:55:57.148Z,0.00
2019-02-20T00:56:57.145Z,0.00
2019-02-20T00:57:57.219Z,0.00
2019-02-20T00:58:57.107Z,0.00
2019-02-20T00:59:57.091Z,0.00
2019-02-20T01:00:57.092Z,0.00
2019-02-20T01:01:57.069Z,0.00
2019-02-20T01:02:57.074Z,0.00
2019-02-20T01:03:57.071Z,0.00
2019-02-20T01:04:57.174Z,0.00
2019-02-20T01:05:57.041Z,0.00
2019-02-20T01:06:57.006Z,0.00
2019-02-20T01:07:57.002Z,0.00
2019-02-20T01:08:57.009Z,0.00
2019-02-20T01:09:56.999Z,0.00
2019-02-20T01:10:56.973Z,0.00
2019-02-20T01:11:56.960Z,0.00
2019-02-20T01:12:56.949Z,0.00
2019-02-20T01:13:56.982Z,0.00
2019-02-20T01:14:56.925Z,0.00
2019-02-20T01:15:56.902Z,0.00
2019-02-20T01:16:56.903Z,0.00
2019-02-20T01:17:56.890Z,0.00
2019-02-20T01:18:56.885Z,0.00
2019-02-20T01:19:56.890Z,0.00
2019-02-20T01:20:56.865Z,0.00
2019-02-20T01:21:56.867Z,0.00
2019-02-20T01:22:59.794Z,0.00
2019-02-20T01:23:56.820Z,0.00
2019-02-20T01:24:56.822Z,0.00
2019-02-20T01:25:56.822Z,0.00
2019-02-20T01:26:56.786Z,0.00
2019-02-20T01:27:56.805Z,0.00
2019-02-20T01:28:56.798Z,0.00
2019-02-20T01:29:56.775Z,0.00
2019-02-20T01:30:56.794Z,0.00
2019-02-20T01:31:56.743Z,0.00
2019-02-20T01:32:56.763Z,0.00
2019-02-20T01:33:56.742Z,0.00
2019-02-20T01:34:56.744Z,0.00
2019-02-20T01:35:56.772Z,0.00
2019-02-20T01:36:56.718Z,0.00
2019-02-20T01:37:56.702Z,0.00
2019-02-20T01:38:56.716Z,0.00
2019-02-20T01:39:56.666Z,0.00
2019-02-20T01:40:56.658Z,0.00
2019-02-20T01:41:56.692Z,0.00
2019-02-20T01:42:56.656Z,0.00
2019-02-20T01:43:56.617Z,0.00
2019-02-20T01:44:56.634Z,0.00
2019-02-20T01:45:56.599Z,0.00
2019-02-20T01:46:56.610Z,0.00
2019-02-20T01:47:56.601Z,0.00
2019-02-20T01:48:56.563Z,0.00
2019-02-20T01:49:56.596Z,0.00
2019-02-20T01:50:56.546Z,0.00
2019-02-20T01:51:56.532Z,0.00
2019-02-20T01:52:56.531Z,0.00
2019-02-20T01:53:56.531Z,0.00
2019-02-20T01:54:56.501Z,0.00
2019-02-20T01:55:56.515Z,0.00
2019-02-20T01:56:57.294Z,0.00
2019-02-20T01:57:56.540Z,0.00
2019-02-20T01:58:56.450Z,0.00
2019-02-20T01:59:56.448Z,0.00
2019-02-20T02:00:56.451Z,0.00
2019-02-20T02:01:56.443Z,0.00
2019-02-20T02:02:56.415Z,0.00
2019-02-20T02:03:56.429Z,0.00
2019-02-20T02:04:56.423Z,0.00
2019-02-20T02:05:56.388Z,0.00
2019-02-20T02:06:56.388Z,0.00
2019-02-20T02:07:56.369Z,0.00
2019-02-20T02:08:56.393Z,0.00
2019-02-20T02:09:56.346Z,0.00
2019-02-20T02:10:56.353Z,0.00
2019-02-20T02:11:56.346Z,0.00
2019-02-20T02:12:56.340Z,0.00
2019-02-20T02:13:56.308Z,0.00
2019-02-20T02:14:56.391Z,0.00
2019-02-20T02:15:56.271Z,0.00
2019-02-20T02:16:56.269Z,0.00
2019-02-20T02:17:56.289Z,0.00
2019-02-20T02:18:56.258Z,0.00
2019-02-20T02:19:56.240Z,0.00
2019-02-20T02:20:56.211Z,0.00
2019-02-20T02:21:56.205Z,0.00
2019-02-20T02:22:56.191Z,0.00
2019-02-20T02:23:56.184Z,0.00
2019-02-20T02:24:56.217Z,0.00
2019-02-20T02:25:56.159Z,0.00
2019-02-20T02:26:56.147Z,0.00
2019-02-20T02:27:56.133Z,0.00
2019-02-20T02:28:56.127Z,0.00
2019-02-20T02:29:56.129Z,0.00
2019-02-20T02:30:56.135Z,0.00
2019-02-20T02:31:56.127Z,0.00
2019-02-20T02:32:57.371Z,0.00
2019-02-20T02:33:56.083Z,0.00
2019-02-20T02:34:56.072Z,0.00
2019-02-20T02:35:56.118Z,0.00
2019-02-20T02:36:56.061Z,0.00
2019-02-20T02:37:56.101Z,0.00
2019-02-20T02:38:56.034Z,0.00
2019-02-20T02:39:56.062Z,0.00
2019-02-20T02:40:56.018Z,0.00
2019-02-20T02:41:56.012Z,0.00
2019-02-20T02:42:56.010Z,0.00
2019-02-20T02:43:56.014Z,0.00
2019-02-20T02:44:55.971Z,0.00
2019-02-20T02:45:55.964Z,0.00
2019-02-20T02:46:55.998Z,0.00
2019-02-20T02:47:55.937Z,0.00
2019-02-20T02:48:55.936Z,0.00
2019-02-20T02:49:55.986Z,0.00
2019-02-20T02:50:55.924Z,0.00
2019-02-20T02:51:55.899Z,0.00
2019-02-20T02:52:55.878Z,0.00
2019-02-20T02:53:55.901Z,0.00
2019-02-20T02:54:55.863Z,0.00
2019-02-20T02:55:55.887Z,0.00
2019-02-20T02:56:55.875Z,0.00
2019-02-20T02:57:55.827Z,0.00
2019-02-20T02:58:55.811Z,0.00
2019-02-20T02:59:55.836Z,0.00
2019-02-20T03:00:55.789Z,0.00
2019-02-20T03:01:55.769Z,0.00
2019-02-20T03:02:55.804Z,0.00
2019-02-20T03:03:55.799Z,0.00
2019-02-20T03:04:55.774Z,0.00
2019-02-20T03:05:55.748Z,0.00
2019-02-20T03:06:55.769Z,0.00
2019-02-20T03:07:55.743Z,0.00
2019-02-20T03:08:55.732Z,0.00
2019-02-20T03:09:55.687Z,0.00
2019-02-20T03:10:55.705Z,0.00
2019-02-20T03:11:55.676Z,0.00
2019-02-20T03:12:55.693Z,0.00
2019-02-20T03:13:55.678Z,0.00
2019-02-20T03:14:55.729Z,0.00
2019-02-20T03:15:56.352Z,0.00
2019-02-20T03:16:55.678Z,0.00
2019-02-20T03:17:55.726Z,0.00
2019-02-20T03:18:55.609Z,0.00
2019-02-20T03:19:55.587Z,0.00
2019-02-20T03:20:55.590Z,0.00
2019-02-20T03:21:55.569Z,0.00
2019-02-20T03:22:55.566Z,0.00
2019-02-20T03:23:55.578Z,0.00
2019-02-20T03:24:55.521Z,0.00
2019-02-20T03:25:55.543Z,0.00
2019-02-20T03:26:55.504Z,0.00
2019-02-20T03:27:55.568Z,0.00
2019-02-20T03:28:55.484Z,0.00
2019-02-20T03:29:55.557Z,0.00
2019-02-20T03:30:55.475Z,0.00
2019-02-20T03:31:55.512Z,0.00
2019-02-20T03:32:55.493Z,0.00
2019-02-20T03:33:55.448Z,0.00
2019-02-20T03:34:56.358Z,0.00
2019-02-20T03:35:55.517Z,0.00
2019-02-20T03:36:56.361Z,0.00
2019-02-20T03:37:55.408Z,0.00
2019-02-20T03:38:55.421Z,0.00
2019-02-20T03:39:55.365Z,0.00
2019-02-20T03:40:55.353Z,0.00
2019-02-20T03:41:55.342Z,0.00
2019-02-20T03:42:55.373Z,0.00
2019-02-20T03:43:55.338Z,0.00
2019-02-20T03:44:55.424Z,0.00
2019-02-20T03:45:55.377Z,0.00
2019-02-20T03:46:55.349Z,0.00
2019-02-20T03:47:55.292Z,0.00
2019-02-20T03:48:55.291Z,0.00
2019-02-20T03:49:55.282Z,0.00
2019-02-20T03:50:55.858Z,0.00
2019-02-20T03:51:55.243Z,0.00
2019-02-20T03:52:55.234Z,0.00
2019-02-20T03:53:55.261Z,0.00
2019-02-20T03:54:55.217Z,0.00
2019-02-20T03:55:55.188Z,0.00
2019-02-20T03:56:55.228Z,0.00
2019-02-20T03:57:55.167Z,0.00
2019-02-20T03:58:55.170Z,0.00
2019-02-20T03:59:55.161Z,0.00
2019-02-20T04:00:55.272Z,0.00
2019-02-20T04:01:56.012Z,0.00
2019-02-20T04:02:55.182Z,0.00
2019-02-20T04:03:55.109Z,0.00
2019-02-20T04:04:55.107Z,0.00
2019-02-20T04:05:55.090Z,0.00
2019-02-20T04:06:55.100Z,0.00
2019-02-20T04:07:55.063Z,0.00
2019-02-20T04:08:55.062Z,0.00
2019-02-20T04:09:55.041Z,0.00
2019-02-20T04:10:55.182Z,0.00
2019-02-20T04:11:55.090Z,0.00
2019-02-20T04:12:55.026Z,0.00
2019-02-20T04:13:54.993Z,0.00
2019-02-20T04:14:55.004Z,0.00
2019-02-20T04:15:55.051Z,0.00
2019-02-20T04:16:55.113Z,0.00
2019-02-20T04:17:55.009Z,0.00
2019-02-20T04:18:54.933Z,0.00
2019-02-20T04:19:54.938Z,0.00
2019-02-20T04:20:54.935Z,0.00
2019-02-20T04:21:54.990Z,0.00
2019-02-20T04:22:54.950Z,0.00
2019-02-20T04:24:02.028Z,0.00
2019-02-20T04:24:55.898Z,0.00
2019-02-20T04:25:54.919Z,0.00
2019-02-20T04:26:54.970Z,0.00
2019-02-20T04:27:54.870Z,0.00
2019-02-20T04:28:54.922Z,0.00
2019-02-20T04:29:54.846Z,0.00
2019-02-20T04:30:54.849Z,0.00
2019-02-20T04:31:54.814Z,0.00
2019-02-20T04:32:54.804Z,0.00
2019-02-20T04:33:54.832Z,0.00
2019-02-20T04:34:54.784Z,0.00
2019-02-20T04:35:54.809Z,0.00
2019-02-20T04:36:54.811Z,0.00
2019-02-20T04:37:54.749Z,0.00
2019-02-20T04:38:54.761Z,0.00
2019-02-20T04:39:54.798Z,0.00
2019-02-20T04:40:54.714Z,0.00
2019-02-20T04:41:54.749Z,0.00
2019-02-20T04:42:54.722Z,0.00
2019-02-20T04:43:54.710Z,0.00
2019-02-20T04:44:54.711Z,0.00
2019-02-20T04:45:54.679Z,0.00
2019-02-20T04:46:54.663Z,0.00
2019-02-20T04:47:54.669Z,0.00
2019-02-20T04:48:54.641Z,0.00
2019-02-20T04:49:54.639Z,0.00
2019-02-20T04:50:54.643Z,0.00
2019-02-20T04:51:54.652Z,0.00
2019-02-20T04:52:54.610Z,0.00
2019-02-20T04:53:54.612Z,0.00
2019-02-20T04:54:54.581Z,0.00
2019-02-20T04:55:54.588Z,0.00
2019-02-20T04:56:54.542Z,0.00
2019-02-20T04:57:54.548Z,0.00
2019-02-20T04:58:54.567Z,0.00
2019-02-20T04:59:54.581Z,0.00
2019-02-20T05:00:54.562Z,0.00
2019-02-20T05:01:54.528Z,0.00
2019-02-20T05:02:54.494Z,0.00
2019-02-20T05:03:54.486Z,0.00
2019-02-20T05:04:54.461Z,0.00
2019-02-20T05:05:54.480Z,0.00
2019-02-20T05:06:54.505Z,0.00
2019-02-20T05:07:54.426Z,0.00
2019-02-20T05:08:54.455Z,0.00
2019-02-20T05:09:54.419Z,0.00
2019-02-20T05:10:54.419Z,0.00
2019-02-20T05:11:54.421Z,0.00
2019-02-20T05:12:54.407Z,0.00
2019-02-20T05:13:54.401Z,0.00
2019-02-20T05:14:54.371Z,0.00
2019-02-20T05:15:54.394Z,0.00
2019-02-20T05:16:54.349Z,0.00
2019-02-20T05:17:54.443Z,0.00
2019-02-20T05:18:54.323Z,0.00
2019-02-20T05:19:54.359Z,0.00
2019-02-20T05:20:54.302Z,0.00
2019-02-20T05:21:54.317Z,0.00
2019-02-20T05:22:54.286Z,0.00
2019-02-20T05:23:54.263Z,0.00
2019-02-20T05:24:54.320Z,0.00
2019-02-20T05:25:54.257Z,0.00
2019-02-20T05:26:54.311Z,0.00
2019-02-20T05:27:54.238Z,0.00
2019-02-20T05:28:54.211Z,0.00
2019-02-20T05:29:54.236Z,0.00
2019-02-20T05:30:54.202Z,0.00
2019-02-20T05:31:54.200Z,0.00
2019-02-20T05:32:54.186Z,0.00
2019-02-20T05:33:54.199Z,0.00
2019-02-20T05:34:54.187Z,0.00
2019-02-20T05:35:54.143Z,0.00
2019-02-20T05:36:54.130Z,0.00
2019-02-20T05:37:54.154Z,0.00
2019-02-20T05:38:54.197Z,0.00
2019-02-20T05:39:54.108Z,0.00
2019-02-20T05:40:54.132Z,0.00
2019-02-20T05:41:54.092Z,0.00
2019-02-20T05:42:54.878Z,0.00
2019-02-20T05:43:54.081Z,0.00
2019-02-20T05:44:54.077Z,4.00
2019-02-20T05:45:54.053Z,0.00
2019-02-20T05:46:54.020Z,4.00
2019-02-20T05:47:54.049Z,0.00
2019-02-20T05:48:54.030Z,4.00
2019-02-20T05:49:53.990Z,4.00
2019-02-20T05:50:54.020Z,4.00
2019-02-20T05:51:53.974Z,8.00
2019-02-20T05:52:53.963Z,8.00
2019-02-20T05:53:53.999Z,8.00
2019-02-20T05:54:53.935Z,8.00
2019-02-20T05:55:53.975Z,12.00
2019-02-20T05:56:53.950Z,12.00
2019-02-20T05:57:53.920Z,12.00
2019-02-20T05:58:53.889Z,16.00
2019-02-20T05:59:53.900Z,20.00
2019-02-20T06:00:53.862Z,24.00
2019-02-20T06:01:53.882Z,28.00
2019-02-20T06:02:53.876Z,32.00
2019-02-20T06:03:53.871Z,36.00
2019-02-20T06:04:53.876Z,44.00
2019-02-20T06:05:53.865Z,48.00
2019-02-20T06:06:53.839Z,56.00
2019-02-20T06:07:53.818Z,64.00
2019-02-20T06:08:53.797Z,72.00
2019-02-20T06:09:54.148Z,88.00
2019-02-20T06:10:53.851Z,96.00
2019-02-20T06:11:53.759Z,108.00
2019-02-20T06:12:53.754Z,120.00
2019-02-20T06:13:53.776Z,132.00
2019-02-20T06:14:53.772Z,148.00
2019-02-20T06:15:53.739Z,164.00
2019-02-20T06:16:53.785Z,184.00
2019-02-20T06:17:53.753Z,208.00
2019-02-20T06:18:53.700Z,236.00
2019-02-20T06:19:53.694Z,256.00
2019-02-20T06:20:53.688Z,276.00
2019-02-20T06:21:53.658Z,292.00
2019-02-20T06:22:53.685Z,308.00
2019-02-20T06:23:53.630Z,316.00
2019-02-20T06:24:53.632Z,340.00
2019-02-20T06:25:53.621Z,360.00
2019-02-20T06:26:53.619Z,388.00
2019-02-20T06:27:53.687Z,420.00
2019-02-20T06:28:53.589Z,456.00
2019-02-20T06:29:53.614Z,504.00
2019-02-20T06:30:53.582Z,560.00
2019-02-20T06:31:53.620Z,608.00
2019-02-20T06:32:53.587Z,644.00
2019-02-20T06:33:53.520Z,676.00
2019-02-20T06:34:53.507Z,712.00
2019-02-20T06:35:53.516Z,748.00
2019-02-20T06:36:53.550Z,776.00
2019-02-20T06:37:53.513Z,792.00
2019-02-20T06:38:53.533Z,804.00
2019-02-20T06:39:53.474Z,808.00
2019-02-20T06:40:53.474Z,824.00
2019-02-20T06:41:53.479Z,856.00
2019-02-20T06:42:53.493Z,880.00
2019-02-20T06:43:53.445Z,904.00
2019-02-20T06:44:53.412Z,912.00
2019-02-20T06:45:53.398Z,924.00
2019-02-20T06:46:53.410Z,952.00
2019-02-20T06:47:53.398Z,996.00
2019-02-20T06:48:53.400Z,1032.00
2019-02-20T06:49:53.386Z,1076.00
2019-02-20T06:50:53.339Z,1128.00
2019-02-20T06:51:53.319Z,1168.00
2019-02-20T06:52:53.368Z,1168.00
2019-02-20T06:53:53.355Z,1172.00
2019-02-20T06:54:54.130Z,1224.00
2019-02-20T06:55:53.291Z,1304.00
2019-02-20T06:56:53.306Z,1412.00
2019-02-20T06:57:53.274Z,1488.00
2019-02-20T06:58:53.292Z,1508.00
2019-02-20T06:59:53.292Z,1532.00
2019-02-20T07:00:53.269Z,1584.00
2019-02-20T07:01:53.234Z,1612.00
2019-02-20T07:02:53.250Z,1580.00
2019-02-20T07:03:53.190Z,1572.00
2019-02-20T07:04:53.250Z,1680.00
2019-02-20T07:05:53.199Z,1696.00
2019-02-20T07:06:53.200Z,1644.00
2019-02-20T07:07:53.170Z,1680.00
2019-02-20T07:08:53.146Z,1744.00
2019-02-20T07:09:53.193Z,1800.00
2019-02-20T07:10:53.142Z,1848.00
2019-02-20T07:11:53.144Z,1876.00
2019-02-20T07:12:53.116Z,1876.00
2019-02-20T07:13:53.093Z,1864.00
2019-02-20T07:14:53.974Z,1856.00
2019-02-20T07:15:53.102Z,1836.00
2019-02-20T07:16:53.060Z,1824.00
2019-02-20T07:17:53.063Z,1816.00
2019-02-20T07:18:53.056Z,1796.00
2019-02-20T07:19:53.044Z,1756.00
2019-02-20T07:20:56.064Z,1732.00
2019-02-20T07:21:53.008Z,1744.00
2019-02-20T07:22:53.036Z,1748.00
2019-02-20T07:23:53.000Z,1772.00
2019-02-20T07:24:52.993Z,1764.00
2019-02-20T07:25:52.983Z,1736.00
2019-02-20T07:26:53.066Z,1744.00
2019-02-20T07:27:52.950Z,1772.00
2019-02-20T07:28:52.962Z,1772.00
2019-02-20T07:29:52.946Z,1812.00
2019-02-20T07:30:52.917Z,1872.00
2019-02-20T07:31:52.967Z,1940.00
2019-02-20T07:32:52.955Z,1980.00
2019-02-20T07:33:52.899Z,2072.00
2019-02-20T07:34:52.896Z,2176.00
2019-02-20T07:35:52.910Z,2276.00
2019-02-20T07:36:52.945Z,2340.00
2019-02-20T07:37:52.870Z,2488.00
2019-02-20T07:38:52.865Z,2536.00
2019-02-20T07:39:52.844Z,2568.00
2019-02-20T07:40:52.821Z,2716.00
2019-02-20T07:41:52.816Z,2716.00
2019-02-20T07:42:52.824Z,2868.00
2019-02-20T07:43:53.399Z,2896.00
2019-02-20T07:44:52.792Z,3000.00
2019-02-20T07:45:52.801Z,3096.00
2019-02-20T07:46:53.473Z,3220.00
2019-02-20T07:47:52.781Z,3284.00
2019-02-20T07:48:52.741Z,3224.00
2019-02-20T07:49:52.728Z,3240.00
2019-02-20T07:50:52.751Z,3232.00
2019-02-20T07:51:52.744Z,3216.00
2019-02-20T07:52:52.711Z,3164.00
2019-02-20T07:53:53.400Z,3164.00
2019-02-20T07:54:52.676Z,3264.00
2019-02-20T07:55:52.702Z,3280.00
2019-02-20T07:56:52.662Z,3272.00
2019-02-20T07:57:52.661Z,3280.00
2019-02-20T07:58:52.643Z,3256.00
2019-02-20T07:59:52.652Z,3152.00
2019-02-20T08:00:52.614Z,2792.00
2019-02-20T08:01:52.615Z,2324.00
2019-02-20T08:02:52.672Z,2220.00
2019-02-20T08:03:53.440Z,2212.00
2019-02-20T08:04:52.660Z,2088.00
2019-02-20T08:05:52.592Z,1976.00
2019-02-20T08:06:52.572Z,1860.00
2019-02-20T08:07:52.571Z,1856.00
2019-02-20T08:08:52.553Z,1840.00
2019-02-20T08:09:55.167Z,1836.00
2019-02-20T08:10:53.491Z,1848.00
2019-02-20T08:11:52.499Z,1760.00
2019-02-20T08:12:52.514Z,1748.00
2019-02-20T08:13:52.522Z,1724.00
2019-02-20T08:14:52.491Z,1744.00
2019-02-20T08:15:58.404Z,1796.00
2019-02-20T08:16:52.953Z,1884.00
2019-02-20T08:17:52.470Z,1884.00
2019-02-20T08:18:52.430Z,1900.00
2019-02-20T08:19:53.411Z,1948.00
2019-02-20T08:20:52.411Z,2000.00
2019-02-20T08:21:52.412Z,2084.00
2019-02-20T08:22:52.408Z,2248.00
2019-02-20T08:23:52.413Z,2572.00
2019-02-20T08:24:52.413Z,3280.00
2019-02-20T08:25:52.364Z,3024.00
2019-02-20T08:26:52.360Z,3368.00
2019-02-20T08:27:52.532Z,3648.00
2019-02-20T08:28:52.364Z,3824.00
2019-02-20T08:29:52.329Z,3932.00
2019-02-20T08:30:52.312Z,3964.00
2019-02-20T08:31:53.904Z,3844.00
2019-02-20T08:32:52.300Z,4248.00
2019-02-20T08:33:52.402Z,3960.00
2019-02-20T08:34:52.275Z,4328.00
2019-02-20T08:35:52.317Z,3996.00
2019-02-20T08:36:52.244Z,4504.00
2019-02-20T08:37:52.289Z,4604.00
2019-02-20T08:38:52.234Z,4664.00
2019-02-20T08:39:52.259Z,4836.00
2019-02-20T08:40:52.195Z,5204.00
2019-02-20T08:41:52.189Z,5476.00
2019-02-20T08:42:52.197Z,5916.00
2019-02-20T08:43:52.162Z,7012.00
2019-02-20T08:44:52.205Z,5700.00
2019-02-20T08:45:52.162Z,5884.00
2019-02-20T08:46:52.118Z,5328.00
2019-02-20T08:47:52.134Z,5596.00
2019-02-20T08:48:52.153Z,5672.00
2019-02-20T08:49:54.321Z,5748.00
2019-02-20T08:50:52.131Z,5732.00
2019-02-20T08:51:52.130Z,5804.00
2019-02-20T08:52:53.120Z,5684.00
2019-02-20T08:53:52.258Z,6016.00
2019-02-20T08:54:52.144Z,6032.00
2019-02-20T08:55:52.099Z,6080.00
2019-02-20T08:56:52.057Z,6104.00
2019-02-20T08:57:52.054Z,6084.00
2019-02-20T08:58:52.009Z,6036.00
2019-02-20T08:59:52.001Z,6220.00
2019-02-20T09:00:52.015Z,6036.00
2019-02-20T09:01:52.009Z,5992.00
2019-02-20T09:02:51.952Z,5812.00
2019-02-20T09:03:52.918Z,5576.00
2019-02-20T09:04:52.015Z,5112.00
2019-02-20T09:05:51.937Z,4536.00
2019-02-20T09:06:52.063Z,4232.00
2019-02-20T09:07:51.905Z,4136.00
2019-02-20T09:08:51.901Z,4172.00
2019-02-20T09:09:51.939Z,4160.00
2019-02-20T09:10:51.884Z,4148.00
2019-02-20T09:11:51.862Z,4232.00
2019-02-20T09:12:51.877Z,4416.00
2019-02-20T09:13:51.861Z,5008.00
2019-02-20T09:14:51.831Z,5584.00
2019-02-20T09:15:51.832Z,6052.00
2019-02-20T09:16:51.822Z,6196.00
2019-02-20T09:17:51.803Z,6152.00
2019-02-20T09:18:51.785Z,6228.00
2019-02-20T09:19:51.837Z,6028.00
2019-02-20T09:20:51.791Z,6112.00
2019-02-20T09:21:51.816Z,6144.00
2019-02-20T09:22:51.770Z,6244.00
2019-02-20T09:23:51.792Z,6432.00
2019-02-20T09:24:51.767Z,6524.00
2019-02-20T09:25:52.592Z,6472.00
2019-02-20T09:26:52.054Z,6308.00
2019-02-20T09:27:51.773Z,6308.00
2019-02-20T09:28:52.918Z,6284.00
2019-02-20T09:29:51.671Z,5820.00
2019-02-20T09:30:51.707Z,5700.00
2019-02-20T09:31:51.666Z,5632.00
2019-02-20T09:32:51.673Z,5656.00
2019-02-20T09:33:51.611Z,5696.00
2019-02-20T09:34:51.621Z,5588.00
2019-02-20T09:35:51.628Z,5744.00
2019-02-20T09:36:51.623Z,5904.00
2019-02-20T09:37:51.587Z,5896.00
2019-02-20T09:38:51.611Z,5928.00
2019-02-20T09:39:51.590Z,6056.00
2019-02-20T09:40:51.565Z,6168.00
2019-02-20T09:41:51.554Z,6420.00
2019-02-20T09:42:51.655Z,6504.00
2019-02-20T09:43:51.533Z,6588.00
2019-02-20T09:44:51.534Z,6628.00
2019-02-20T09:45:51.511Z,6256.00
2019-02-20T09:46:51.523Z,6128.00
2019-02-20T09:47:51.488Z,6196.00
2019-02-20T09:48:51.521Z,6188.00
2019-02-20T09:49:51.450Z,6252.00
2019-02-20T09:50:51.438Z,6552.00
2019-02-20T09:51:51.452Z,6664.00
2019-02-20T09:52:52.791Z,6992.00
2019-02-20T09:53:51.429Z,7360.00
2019-02-20T09:54:51.484Z,7892.00
2019-02-20T09:55:52.028Z,7836.00
2019-02-20T09:56:51.399Z,7860.00
2019-02-20T09:57:51.376Z,8696.00
2019-02-20T09:58:51.391Z,8368.00
2019-02-20T09:59:51.371Z,7944.00
2019-02-20T10:00:51.366Z,7144.00
2019-02-20T10:01:51.343Z,6000.00
2019-02-20T10:02:51.358Z,5288.00
2019-02-20T10:03:51.333Z,5100.00
2019-02-20T10:04:51.318Z,4924.00
2019-02-20T10:05:51.303Z,4780.00
2019-02-20T10:06:51.275Z,5176.00
2019-02-20T10:07:51.412Z,7148.00
2019-02-20T10:08:51.316Z,6072.00
2019-02-20T10:09:51.243Z,5924.00
2019-02-20T10:10:51.235Z,6820.00
2019-02-20T10:11:51.232Z,7780.00
2019-02-20T10:12:51.207Z,6308.00
2019-02-20T10:13:51.228Z,6436.00
2019-02-20T10:14:51.239Z,6764.00
2019-02-20T10:15:51.183Z,7576.00
2019-02-20T10:16:51.194Z,8132.00
2019-02-20T10:17:51.163Z,8028.00
2019-02-20T10:18:51.161Z,9444.00
2019-02-20T10:19:51.225Z,8920.00
2019-02-20T10:20:51.127Z,9572.00
2019-02-20T10:21:51.119Z,9564.00
2019-02-20T10:22:51.116Z,9912.00
2019-02-20T10:23:51.103Z,10084.00
2019-02-20T10:24:51.090Z,10364.00
2019-02-20T10:26:00.342Z,10184.00
2019-02-20T10:27:00.186Z,9284.00
2019-02-20T10:27:52.075Z,9184.00
2019-02-20T10:28:51.082Z,8744.00
2019-02-20T10:29:51.034Z,8608.00
2019-02-20T10:30:51.035Z,8884.00
2019-02-20T10:31:51.034Z,8852.00
2019-02-20T10:32:51.004Z,8880.00
2019-02-20T10:33:50.994Z,8840.00
2019-02-20T10:34:50.973Z,8932.00
2019-02-20T10:35:51.012Z,8932.00
2019-02-20T10:36:50.986Z,8920.00
2019-02-20T10:37:52.890Z,8848.00
2019-02-20T10:38:50.971Z,8572.00
2019-02-20T10:39:50.964Z,8452.00
2019-02-20T10:40:50.915Z,8472.00
2019-02-20T10:41:50.939Z,8324.00
2019-02-20T10:42:50.918Z,8148.00
2019-02-20T10:43:50.875Z,8224.00
2019-02-20T10:44:50.868Z,8080.00
2019-02-20T10:45:51.434Z,8060.00
2019-02-20T10:46:50.887Z,7900.00
2019-02-20T10:47:50.843Z,7868.00
2019-02-20T10:48:50.838Z,7744.00
2019-02-20T10:49:50.827Z,7408.00
2019-02-20T10:50:50.818Z,7172.00
2019-02-20T10:51:50.808Z,6940.00
2019-02-20T10:52:50.862Z,6720.00
2019-02-20T10:53:50.777Z,6684.00
2019-02-20T10:54:57.616Z,6800.00
2019-02-20T10:55:51.821Z,6664.00
2019-02-20T10:56:50.774Z,6556.00
2019-02-20T10:57:50.760Z,6476.00
2019-02-20T10:58:50.799Z,6568.00
2019-02-20T10:59:50.732Z,6880.00
2019-02-20T11:00:50.733Z,6988.00
2019-02-20T11:01:50.774Z,7484.00
2019-02-20T11:02:50.765Z,7892.00
2019-02-20T11:03:50.699Z,7768.00
2019-02-20T11:04:50.705Z,7612.00
2019-02-20T11:05:50.653Z,7116.00
2019-02-20T11:06:50.654Z,6604.00
2019-02-20T11:07:50.641Z,6612.00
2019-02-20T11:08:50.631Z,6428.00
2019-02-20T11:09:50.603Z,6396.00
2019-02-20T11:10:50.660Z,6448.00
2019-02-20T11:11:50.644Z,6584.00
2019-02-20T11:12:50.587Z,7280.00
2019-02-20T11:13:50.576Z,7820.00
2019-02-20T11:14:50.541Z,8848.00
2019-02-20T11:15:50.574Z,9460.00
2019-02-20T11:16:50.551Z,9472.00
2019-02-20T11:17:50.518Z,9364.00
2019-02-20T11:18:50.550Z,9148.00
2019-02-20T11:19:50.546Z,8480.00
2019-02-20T11:20:50.480Z,8440.00
2019-02-20T11:21:50.537Z,8340.00
2019-02-20T11:22:50.488Z,8388.00
2019-02-20T11:23:50.472Z,8228.00
2019-02-20T11:24:50.496Z,8276.00
2019-02-20T11:25:50.452Z,7936.00
2019-02-20T11:26:54.270Z,7876.00
2019-02-20T11:27:50.406Z,7548.00
2019-02-20T11:28:50.441Z,7480.00
2019-02-20T11:29:50.409Z,7540.00
2019-02-20T11:30:50.410Z,7668.00
2019-02-20T11:31:50.363Z,7824.00
2019-02-20T11:32:50.346Z,7652.00
2019-02-20T11:33:50.360Z,7440.00
2019-02-20T11:34:50.339Z,7056.00
2019-02-20T11:35:50.358Z,6752.00
2019-02-20T11:36:50.314Z,6736.00
2019-02-20T11:37:50.339Z,6832.00
2019-02-20T11:38:50.315Z,6820.00
2019-02-20T11:39:50.283Z,7192.00
2019-02-20T11:40:50.362Z,7584.00
2019-02-20T11:41:50.282Z,8340.00
2019-02-20T11:42:50.268Z,8624.00
2019-02-20T11:43:50.266Z,8716.00
2019-02-20T11:44:50.250Z,9388.00
2019-02-20T11:45:50.238Z,9052.00
2019-02-20T11:46:50.224Z,9200.00
2019-02-20T11:47:50.228Z,9400.00
2019-02-20T11:48:50.203Z,8584.00
2019-02-20T11:49:50.208Z,8468.00
2019-02-20T11:50:50.183Z,7888.00
2019-02-20T11:51:50.200Z,6380.00
2019-02-20T11:52:50.192Z,5884.00
2019-02-20T11:53:50.127Z,6008.00
2019-02-20T11:54:50.140Z,6240.00
2019-02-20T11:55:50.176Z,5900.00
2019-02-20T11:56:50.156Z,5800.00
2019-02-20T11:57:50.097Z,5372.00
2019-02-20T11:58:50.134Z,4920.00
2019-02-20T11:59:50.105Z,5344.00
2019-02-20T12:00:50.072Z,5872.00
2019-02-20T12:01:50.121Z,6608.00
2019-02-20T12:02:50.055Z,6868.00
2019-02-20T12:03:50.061Z,7408.00
2019-02-20T12:04:50.026Z,8028.00
2019-02-20T12:05:50.004Z,8164.00
2019-02-20T12:06:49.998Z,8376.00
2019-02-20T12:07:49.983Z,8040.00
2019-02-20T12:08:49.984Z,7920.00
2019-02-20T12:09:49.988Z,8220.00
2019-02-20T12:10:49.973Z,9060.00
2019-02-20T12:11:49.942Z,8628.00
2019-02-20T12:12:50.020Z,8452.00
2019-02-20T12:13:49.923Z,7204.00
2019-02-20T12:14:49.917Z,6272.00
2019-02-20T12:15:49.910Z,6952.00
2019-02-20T12:16:49.902Z,7396.00
2019-02-20T12:17:49.886Z,7120.00
2019-02-20T12:18:49.873Z,7072.00
2019-02-20T12:19:49.841Z,6676.00
2019-02-20T12:20:49.833Z,8300.00
2019-02-20T12:21:49.836Z,8892.00
2019-02-20T12:22:49.809Z,9620.00
2019-02-20T12:23:49.879Z,10356.00
2019-02-20T12:24:49.802Z,9684.00
2019-02-20T12:25:49.810Z,9568.00
2019-02-20T12:26:49.779Z,8372.00
2019-02-20T12:27:49.804Z,9776.00
2019-02-20T12:28:49.798Z,10288.00
2019-02-20T12:29:49.761Z,9684.00
2019-02-20T12:30:49.755Z,9064.00
2019-02-20T12:31:52.472Z,6184.00
2019-02-20T12:32:49.726Z,6012.00
2019-02-20T12:33:49.708Z,6288.00
2019-02-20T12:34:49.780Z,6832.00
2019-02-20T12:35:49.692Z,6648.00
2019-02-20T12:36:49.722Z,5156.00
2019-02-20T12:37:49.691Z,6196.00
2019-02-20T12:38:49.658Z,6956.00
2019-02-20T12:39:49.651Z,6092.00
2019-02-20T12:40:50.925Z,5176.00